sensor_id;sensor_type;location;lat;lon;timestamp;P1;durP1;ratioP1;P2;durP2;ratioP2
10212;SDS011;5150;51.400;6.692;2022-10-14T00:01:50;11.00;;;4.65;;
10212;SDS011;5150;51.400;6.692;2022-10-14T00:05:15;12.02;;;4.55;;
10212;SDS011;5150;51.400;6.692;2022-10-14T00:08:38;11.32;;;3.78;;
10212;SDS011;5150;51.400;6.692;2022-10-14T00:12:07;6.10;;;3.88;;
10212;SDS011;5150;51.400;6.692;2022-10-14T00:15:30;12.27;;;3.90;;
10212;SDS011;5150;51.400;6.692;2022-10-14T00:18:53;8.50;;;4.15;;
10212;SDS011;5150;51.400;6.692;2022-10-14T00:22:17;11.15;;;4.13;;
10212;SDS011;5150;51.400;6.692;2022-10-14T00:25:40;6.38;;;3.13;;
10212;SDS011;5150;51.400;6.692;2022-10-14T00:29:04;12.32;;;3.65;;
10212;SDS011;5150;51.400;6.692;2022-10-14T00:32:29;4.50;;;3.50;;
10212;SDS011;5150;51.400;6.692;2022-10-14T00:35:53;9.32;;;3.70;;
10212;SDS011;5150;51.400;6.692;2022-10-14T00:39:21;7.43;;;3.33;;
10212;SDS011;5150;51.400;6.692;2022-10-14T00:42:44;7.15;;;3.92;;
10212;SDS011;5150;51.400;6.692;2022-10-14T00:46:08;8.75;;;4.05;;
10212;SDS011;5150;51.400;6.692;2022-10-14T00:49:33;12.15;;;4.20;;
10212;SDS011;5150;51.400;6.692;2022-10-14T00:53:00;11.15;;;4.15;;
10212;SDS011;5150;51.400;6.692;2022-10-14T00:56:25;7.43;;;3.75;;
10212;SDS011;5150;51.400;6.692;2022-10-14T00:59:50;9.63;;;4.07;;
10212;SDS011;5150;51.400;6.692;2022-10-14T01:03:17;9.23;;;3.90;;
10212;SDS011;5150;51.400;6.692;2022-10-14T01:06:44;4.72;;;3.33;;
10212;SDS011;5150;51.400;6.692;2022-10-14T01:10:14;11.77;;;3.78;;
10212;SDS011;5150;51.400;6.692;2022-10-14T01:13:46;10.55;;;3.80;;
10212;SDS011;5150;51.400;6.692;2022-10-14T01:17:17;9.98;;;3.58;;
10212;SDS011;5150;51.400;6.692;2022-10-14T01:20:51;11.85;;;3.28;;
10212;SDS011;5150;51.400;6.692;2022-10-14T01:24:41;12.13;;;3.80;;
10212;SDS011;5150;51.400;6.692;2022-10-14T01:28:13;11.70;;;3.70;;
10212;SDS011;5150;51.400;6.692;2022-10-14T01:31:47;12.65;;;4.03;;
10212;SDS011;5150;51.400;6.692;2022-10-14T01:35:16;5.85;;;3.38;;
10212;SDS011;5150;51.400;6.692;2022-10-14T01:38:46;8.20;;;3.55;;
10212;SDS011;5150;51.400;6.692;2022-10-14T01:42:14;4.82;;;3.28;;
10212;SDS011;5150;51.400;6.692;2022-10-14T01:45:43;7.95;;;3.88;;
10212;SDS011;5150;51.400;6.692;2022-10-14T01:49:11;5.20;;;2.80;;
10212;SDS011;5150;51.400;6.692;2022-10-14T01:52:39;13.27;;;4.15;;
10212;SDS011;5150;51.400;6.692;2022-10-14T01:56:05;9.05;;;5.18;;
10212;SDS011;5150;51.400;6.692;2022-10-14T01:59:31;14.02;;;4.00;;
10212;SDS011;5150;51.400;6.692;2022-10-14T02:02:56;9.40;;;4.13;;
10212;SDS011;5150;51.400;6.692;2022-10-14T02:06:22;10.00;;;4.20;;
10212;SDS011;5150;51.400;6.692;2022-10-14T02:09:50;10.40;;;4.18;;
10212;SDS011;5150;51.400;6.692;2022-10-14T02:13:27;10.68;;;4.30;;
10212;SDS011;5150;51.400;6.692;2022-10-14T02:16:59;16.08;;;5.03;;
10212;SDS011;5150;51.400;6.692;2022-10-14T02:20:26;6.00;;;3.28;;
10212;SDS011;5150;51.400;6.692;2022-10-14T02:23:58;11.95;;;4.25;;
10212;SDS011;5150;51.400;6.692;2022-10-14T02:27:26;9.30;;;3.40;;
10212;SDS011;5150;51.400;6.692;2022-10-14T02:30:52;18.70;;;5.15;;
10212;SDS011;5150;51.400;6.692;2022-10-14T02:34:19;5.22;;;3.33;;
10212;SDS011;5150;51.400;6.692;2022-10-14T02:37:45;11.80;;;4.30;;
10212;SDS011;5150;51.400;6.692;2022-10-14T02:41:11;11.63;;;3.85;;
10212;SDS011;5150;51.400;6.692;2022-10-14T02:44:37;7.28;;;2.90;;
10212;SDS011;5150;51.400;6.692;2022-10-14T02:48:12;7.55;;;3.78;;
10212;SDS011;5150;51.400;6.692;2022-10-14T02:51:35;9.18;;;4.18;;
10212;SDS011;5150;51.400;6.692;2022-10-14T02:54:58;13.48;;;3.95;;
10212;SDS011;5150;51.400;6.692;2022-10-14T02:58:23;9.90;;;4.00;;
10212;SDS011;5150;51.400;6.692;2022-10-14T03:01:46;9.00;;;3.35;;
10212;SDS011;5150;51.400;6.692;2022-10-14T03:05:10;10.60;;;3.78;;
10212;SDS011;5150;51.400;6.692;2022-10-14T03:08:33;8.55;;;3.90;;
10212;SDS011;5150;51.400;6.692;2022-10-14T03:11:59;10.82;;;4.40;;
10212;SDS011;5150;51.400;6.692;2022-10-14T03:15:24;8.95;;;3.72;;
10212;SDS011;5150;51.400;6.692;2022-10-14T03:18:47;9.52;;;3.95;;
10212;SDS011;5150;51.400;6.692;2022-10-14T03:22:15;6.25;;;3.33;;
10212;SDS011;5150;51.400;6.692;2022-10-14T03:25:39;14.23;;;4.15;;
10212;SDS011;5150;51.400;6.692;2022-10-14T03:29:07;6.60;;;3.67;;
10212;SDS011;5150;51.400;6.692;2022-10-14T03:32:46;7.90;;;4.10;;
10212;SDS011;5150;51.400;6.692;2022-10-14T03:36:35;9.13;;;3.63;;
10212;SDS011;5150;51.400;6.692;2022-10-14T03:39:58;8.30;;;3.22;;
10212;SDS011;5150;51.400;6.692;2022-10-14T03:43:22;11.32;;;4.80;;
10212;SDS011;5150;51.400;6.692;2022-10-14T03:46:49;11.55;;;4.03;;
10212;SDS011;5150;51.400;6.692;2022-10-14T03:50:20;10.98;;;3.65;;
10212;SDS011;5150;51.400;6.692;2022-10-14T03:53:47;11.55;;;4.00;;
10212;SDS011;5150;51.400;6.692;2022-10-14T03:57:18;6.93;;;3.42;;
10212;SDS011;5150;51.400;6.692;2022-10-14T04:00:45;10.18;;;3.72;;
10212;SDS011;5150;51.400;6.692;2022-10-14T04:04:19;5.32;;;3.17;;
10212;SDS011;5150;51.400;6.692;2022-10-14T04:07:43;16.42;;;3.28;;
10212;SDS011;5150;51.400;6.692;2022-10-14T04:11:07;18.20;;;3.97;;
10212;SDS011;5150;51.400;6.692;2022-10-14T04:14:33;14.02;;;5.15;;
10212;SDS011;5150;51.400;6.692;2022-10-14T04:17:56;9.25;;;3.53;;
10212;SDS011;5150;51.400;6.692;2022-10-14T04:21:19;22.20;;;5.35;;
10212;SDS011;5150;51.400;6.692;2022-10-14T04:24:46;9.98;;;3.45;;
10212;SDS011;5150;51.400;6.692;2022-10-14T04:28:09;10.90;;;4.00;;
10212;SDS011;5150;51.400;6.692;2022-10-14T04:31:40;11.82;;;3.53;;
10212;SDS011;5150;51.400;6.692;2022-10-14T04:35:04;10.90;;;3.83;;
10212;SDS011;5150;51.400;6.692;2022-10-14T04:38:28;8.80;;;3.45;;
10212;SDS011;5150;51.400;6.692;2022-10-14T04:41:58;15.32;;;4.65;;
10212;SDS011;5150;51.400;6.692;2022-10-14T04:45:22;7.13;;;3.28;;
10212;SDS011;5150;51.400;6.692;2022-10-14T04:48:54;8.65;;;3.60;;
10212;SDS011;5150;51.400;6.692;2022-10-14T04:52:20;5.30;;;3.00;;
10212;SDS011;5150;51.400;6.692;2022-10-14T04:55:59;11.13;;;3.72;;
10212;SDS011;5150;51.400;6.692;2022-10-14T04:59:25;9.68;;;4.38;;
10212;SDS011;5150;51.400;6.692;2022-10-14T05:03:11;8.60;;;4.70;;
10212;SDS011;5150;51.400;6.692;2022-10-14T05:06:34;8.63;;;3.65;;
10212;SDS011;5150;51.400;6.692;2022-10-14T05:09:59;7.45;;;3.63;;
10212;SDS011;5150;51.400;6.692;2022-10-14T05:13:33;11.70;;;3.97;;
10212;SDS011;5150;51.400;6.692;2022-10-14T05:17:02;12.07;;;4.70;;
10212;SDS011;5150;51.400;6.692;2022-10-14T05:20:27;15.95;;;4.95;;
10212;SDS011;5150;51.400;6.692;2022-10-14T05:23:51;21.83;;;3.92;;
10212;SDS011;5150;51.400;6.692;2022-10-14T05:27:15;8.52;;;3.42;;
10212;SDS011;5150;51.400;6.692;2022-10-14T05:30:39;18.50;;;4.28;;
10212;SDS011;5150;51.400;6.692;2022-10-14T05:34:06;12.73;;;3.60;;
10212;SDS011;5150;51.400;6.692;2022-10-14T05:37:29;5.63;;;3.42;;
10212;SDS011;5150;51.400;6.692;2022-10-14T05:40:53;11.40;;;3.72;;
10212;SDS011;5150;51.400;6.692;2022-10-14T05:44:17;15.40;;;3.78;;
10212;SDS011;5150;51.400;6.692;2022-10-14T05:47:41;8.38;;;3.45;;
10212;SDS011;5150;51.400;6.692;2022-10-14T05:51:11;8.30;;;3.45;;
10212;SDS011;5150;51.400;6.692;2022-10-14T05:54:35;8.45;;;3.85;;
10212;SDS011;5150;51.400;6.692;2022-10-14T05:58:00;7.63;;;3.45;;
10212;SDS011;5150;51.400;6.692;2022-10-14T06:01:28;10.20;;;3.83;;
10212;SDS011;5150;51.400;6.692;2022-10-14T06:04:55;14.10;;;3.33;;
10212;SDS011;5150;51.400;6.692;2022-10-14T06:08:20;9.40;;;3.72;;
10212;SDS011;5150;51.400;6.692;2022-10-14T06:11:43;7.05;;;3.80;;
10212;SDS011;5150;51.400;6.692;2022-10-14T06:15:06;21.85;;;4.82;;
10212;SDS011;5150;51.400;6.692;2022-10-14T06:18:30;18.23;;;3.92;;
10212;SDS011;5150;51.400;6.692;2022-10-14T06:21:53;9.32;;;3.58;;
10212;SDS011;5150;51.400;6.692;2022-10-14T06:25:17;13.13;;;3.90;;
10212;SDS011;5150;51.400;6.692;2022-10-14T06:28:40;9.50;;;3.50;;
10212;SDS011;5150;51.400;6.692;2022-10-14T06:32:04;12.05;;;2.83;;
10212;SDS011;5150;51.400;6.692;2022-10-14T06:35:27;15.70;;;3.65;;
10212;SDS011;5150;51.400;6.692;2022-10-14T06:38:50;11.88;;;3.72;;
10212;SDS011;5150;51.400;6.692;2022-10-14T06:42:15;10.15;;;3.72;;
10212;SDS011;5150;51.400;6.692;2022-10-14T06:45:38;12.50;;;4.47;;
10212;SDS011;5150;51.400;6.692;2022-10-14T06:49:01;9.43;;;3.50;;
10212;SDS011;5150;51.400;6.692;2022-10-14T06:52:24;24.25;;;4.13;;
10212;SDS011;5150;51.400;6.692;2022-10-14T06:55:47;10.32;;;3.72;;
10212;SDS011;5150;51.400;6.692;2022-10-14T06:59:11;9.02;;;3.55;;
10212;SDS011;5150;51.400;6.692;2022-10-14T07:02:36;10.18;;;3.33;;
10212;SDS011;5150;51.400;6.692;2022-10-14T07:06:01;4.55;;;3.15;;
10212;SDS011;5150;51.400;6.692;2022-10-14T07:09:25;10.82;;;3.30;;
10212;SDS011;5150;51.400;6.692;2022-10-14T07:12:48;5.53;;;3.72;;
10212;SDS011;5150;51.400;6.692;2022-10-14T07:16:15;9.60;;;3.90;;
10212;SDS011;5150;51.400;6.692;2022-10-14T07:19:38;4.82;;;2.90;;
10212;SDS011;5150;51.400;6.692;2022-10-14T07:23:01;6.50;;;3.65;;
10212;SDS011;5150;51.400;6.692;2022-10-14T07:26:24;6.45;;;2.53;;
10212;SDS011;5150;51.400;6.692;2022-10-14T07:29:47;8.70;;;3.60;;
10212;SDS011;5150;51.400;6.692;2022-10-14T07:33:11;6.68;;;2.55;;
10212;SDS011;5150;51.400;6.692;2022-10-14T07:36:34;4.53;;;3.25;;
10212;SDS011;5150;51.400;6.692;2022-10-14T07:39:58;5.20;;;3.10;;
10212;SDS011;5150;51.400;6.692;2022-10-14T07:43:20;18.50;;;3.72;;
10212;SDS011;5150;51.400;6.692;2022-10-14T07:46:44;7.07;;;3.65;;
10212;SDS011;5150;51.400;6.692;2022-10-14T07:50:09;6.68;;;3.58;;
10212;SDS011;5150;51.400;6.692;2022-10-14T07:53:32;8.30;;;3.10;;
10212;SDS011;5150;51.400;6.692;2022-10-14T07:56:57;9.65;;;4.35;;
10212;SDS011;5150;51.400;6.692;2022-10-14T08:00:20;10.77;;;3.88;;
10212;SDS011;5150;51.400;6.692;2022-10-14T08:03:44;7.50;;;3.28;;
10212;SDS011;5150;51.400;6.692;2022-10-14T08:07:10;7.72;;;2.88;;
10212;SDS011;5150;51.400;6.692;2022-10-14T08:10:34;4.70;;;2.65;;
10212;SDS011;5150;51.400;6.692;2022-10-14T08:13:58;4.20;;;2.72;;
10212;SDS011;5150;51.400;6.692;2022-10-14T08:17:21;11.18;;;4.32;;
10212;SDS011;5150;51.400;6.692;2022-10-14T08:20:45;9.88;;;3.13;;
10212;SDS011;5150;51.400;6.692;2022-10-14T08:24:09;15.27;;;4.38;;
10212;SDS011;5150;51.400;6.692;2022-10-14T08:27:32;6.75;;;3.22;;
10212;SDS011;5150;51.400;6.692;2022-10-14T08:30:55;6.00;;;2.72;;
10212;SDS011;5150;51.400;6.692;2022-10-14T08:34:19;10.88;;;3.72;;
10212;SDS011;5150;51.400;6.692;2022-10-14T08:37:44;8.63;;;3.38;;
10212;SDS011;5150;51.400;6.692;2022-10-14T08:41:24;6.70;;;2.85;;
10212;SDS011;5150;51.400;6.692;2022-10-14T08:44:58;19.92;;;4.95;;
10212;SDS011;5150;51.400;6.692;2022-10-14T08:48:28;29.08;;;4.72;;
10212;SDS011;5150;51.400;6.692;2022-10-14T08:51:56;25.38;;;4.82;;
10212;SDS011;5150;51.400;6.692;2022-10-14T08:55:26;29.17;;;6.05;;
10212;SDS011;5150;51.400;6.692;2022-10-14T08:58:55;28.25;;;4.47;;
10212;SDS011;5150;51.400;6.692;2022-10-14T09:02:33;34.80;;;5.72;;
10212;SDS011;5150;51.400;6.692;2022-10-14T09:06:04;25.13;;;5.20;;
10212;SDS011;5150;51.400;6.692;2022-10-14T09:09:33;24.20;;;5.47;;
10212;SDS011;5150;51.400;6.692;2022-10-14T09:13:07;25.60;;;4.53;;
10212;SDS011;5150;51.400;6.692;2022-10-14T09:16:35;23.17;;;5.07;;
10212;SDS011;5150;51.400;6.692;2022-10-14T09:20:02;12.90;;;3.42;;
10212;SDS011;5150;51.400;6.692;2022-10-14T09:23:32;29.10;;;6.07;;
10212;SDS011;5150;51.400;6.692;2022-10-14T09:26:56;18.05;;;4.25;;
10212;SDS011;5150;51.400;6.692;2022-10-14T09:30:21;21.23;;;4.53;;
10212;SDS011;5150;51.400;6.692;2022-10-14T09:33:46;19.50;;;5.38;;
10212;SDS011;5150;51.400;6.692;2022-10-14T09:37:17;18.58;;;4.40;;
10212;SDS011;5150;51.400;6.692;2022-10-14T09:40:48;30.65;;;6.55;;
10212;SDS011;5150;51.400;6.692;2022-10-14T09:44:20;23.80;;;5.47;;
10212;SDS011;5150;51.400;6.692;2022-10-14T09:47:48;20.33;;;5.38;;
10212;SDS011;5150;51.400;6.692;2022-10-14T09:51:18;18.85;;;5.55;;
10212;SDS011;5150;51.400;6.692;2022-10-14T09:54:43;20.00;;;4.97;;
10212;SDS011;5150;51.400;6.692;2022-10-14T09:58:07;25.10;;;5.35;;
10212;SDS011;5150;51.400;6.692;2022-10-14T10:01:38;18.65;;;3.67;;
10212;SDS011;5150;51.400;6.692;2022-10-14T10:05:13;23.02;;;5.00;;
10212;SDS011;5150;51.400;6.692;2022-10-14T10:08:54;27.95;;;6.05;;
10212;SDS011;5150;51.400;6.692;2022-10-14T10:12:21;19.30;;;5.50;;
10212;SDS011;5150;51.400;6.692;2022-10-14T10:15:55;15.32;;;4.07;;
10212;SDS011;5150;51.400;6.692;2022-10-14T10:19:23;23.38;;;5.05;;
10212;SDS011;5150;51.400;6.692;2022-10-14T10:22:49;20.80;;;6.50;;
10212;SDS011;5150;51.400;6.692;2022-10-14T10:26:17;15.27;;;6.22;;
10212;SDS011;5150;51.400;6.692;2022-10-14T10:29:46;27.98;;;7.75;;
10212;SDS011;5150;51.400;6.692;2022-10-14T10:33:17;19.45;;;6.65;;
10212;SDS011;5150;51.400;6.692;2022-10-14T10:36:49;20.45;;;7.43;;
10212;SDS011;5150;51.400;6.692;2022-10-14T10:40:22;17.23;;;6.43;;
10212;SDS011;5150;51.400;6.692;2022-10-14T10:44:09;16.45;;;6.10;;
10212;SDS011;5150;51.400;6.692;2022-10-14T10:47:56;20.80;;;6.85;;
10212;SDS011;5150;51.400;6.692;2022-10-14T10:51:29;13.88;;;5.38;;
10212;SDS011;5150;51.400;6.692;2022-10-14T10:55:00;20.63;;;6.10;;
10212;SDS011;5150;51.400;6.692;2022-10-14T10:58:39;16.58;;;5.78;;
10212;SDS011;5150;51.400;6.692;2022-10-14T11:02:18;16.35;;;5.82;;
10212;SDS011;5150;51.400;6.692;2022-10-14T11:06:06;20.98;;;5.97;;
10212;SDS011;5150;51.400;6.692;2022-10-14T11:09:58;19.35;;;6.70;;
10212;SDS011;5150;51.400;6.692;2022-10-14T11:13:48;16.77;;;6.72;;
10212;SDS011;5150;51.400;6.692;2022-10-14T11:17:19;16.92;;;6.65;;
10212;SDS011;5150;51.400;6.692;2022-10-14T11:20:53;25.55;;;7.70;;
10212;SDS011;5150;51.400;6.692;2022-10-14T11:24:26;20.35;;;6.40;;
10212;SDS011;5150;51.400;6.692;2022-10-14T11:27:58;19.90;;;6.88;;
10212;SDS011;5150;51.400;6.692;2022-10-14T11:31:38;15.63;;;6.18;;
10212;SDS011;5150;51.400;6.692;2022-10-14T11:35:16;19.02;;;7.00;;
10212;SDS011;5150;51.400;6.692;2022-10-14T11:38:52;14.00;;;6.25;;
10212;SDS011;5150;51.400;6.692;2022-10-14T11:42:25;17.48;;;6.35;;
10212;SDS011;5150;51.400;6.692;2022-10-14T11:45:52;11.82;;;6.40;;
10212;SDS011;5150;51.400;6.692;2022-10-14T11:49:19;16.65;;;6.82;;
10212;SDS011;5150;51.400;6.692;2022-10-14T11:52:49;18.15;;;6.03;;
10212;SDS011;5150;51.400;6.692;2022-10-14T11:56:22;13.20;;;6.35;;
10212;SDS011;5150;51.400;6.692;2022-10-14T12:00:10;13.93;;;5.43;;
10212;SDS011;5150;51.400;6.692;2022-10-14T12:03:54;29.92;;;8.27;;
10212;SDS011;5150;51.400;6.692;2022-10-14T12:07:25;13.57;;;6.10;;
10212;SDS011;5150;51.400;6.692;2022-10-14T12:10:56;19.05;;;6.20;;
10212;SDS011;5150;51.400;6.692;2022-10-14T12:14:24;30.40;;;6.30;;
10212;SDS011;5150;51.400;6.692;2022-10-14T12:17:55;18.55;;;5.50;;
10212;SDS011;5150;51.400;6.692;2022-10-14T12:21:22;15.23;;;5.55;;
10212;SDS011;5150;51.400;6.692;2022-10-14T12:24:53;14.68;;;5.65;;
10212;SDS011;5150;51.400;6.692;2022-10-14T12:28:21;18.33;;;6.45;;
10212;SDS011;5150;51.400;6.692;2022-10-14T12:31:47;13.25;;;5.10;;
10212;SDS011;5150;51.400;6.692;2022-10-14T12:35:43;16.80;;;5.80;;
10212;SDS011;5150;51.400;6.692;2022-10-14T12:39:20;13.45;;;5.55;;
10212;SDS011;5150;51.400;6.692;2022-10-14T12:42:53;17.70;;;5.93;;
10212;SDS011;5150;51.400;6.692;2022-10-14T12:46:43;17.73;;;5.50;;
10212;SDS011;5150;51.400;6.692;2022-10-14T12:50:26;16.33;;;5.93;;
10212;SDS011;5150;51.400;6.692;2022-10-14T12:53:54;15.70;;;6.57;;
10212;SDS011;5150;51.400;6.692;2022-10-14T12:57:25;12.70;;;6.50;;
10212;SDS011;5150;51.400;6.692;2022-10-14T13:00:55;13.90;;;5.63;;
10212;SDS011;5150;51.400;6.692;2022-10-14T13:04:21;13.80;;;5.63;;
10212;SDS011;5150;51.400;6.692;2022-10-14T13:07:45;11.95;;;5.47;;
10212;SDS011;5150;51.400;6.692;2022-10-14T13:11:11;10.70;;;6.15;;
10212;SDS011;5150;51.400;6.692;2022-10-14T13:14:54;16.88;;;6.10;;
10212;SDS011;5150;51.400;6.692;2022-10-14T13:18:35;13.60;;;6.32;;
10212;SDS011;5150;51.400;6.692;2022-10-14T13:26:05;16.50;;;5.50;;
10212;SDS011;5150;51.400;6.692;2022-10-14T13:29:40;14.75;;;5.45;;
10212;SDS011;5150;51.400;6.692;2022-10-14T13:33:17;13.07;;;5.53;;
10212;SDS011;5150;51.400;6.692;2022-10-14T13:36:50;11.82;;;5.10;;
10212;SDS011;5150;51.400;6.692;2022-10-14T13:40:27;8.63;;;5.13;;
10212;SDS011;5150;51.400;6.692;2022-10-14T13:43:56;13.15;;;5.75;;
10212;SDS011;5150;51.400;6.692;2022-10-14T13:47:20;7.60;;;4.38;;
10212;SDS011;5150;51.400;6.692;2022-10-14T13:50:45;9.15;;;5.45;;
10212;SDS011;5150;51.400;6.692;2022-10-14T13:54:16;10.27;;;4.68;;
10212;SDS011;5150;51.400;6.692;2022-10-14T13:57:42;11.38;;;5.75;;
10212;SDS011;5150;51.400;6.692;2022-10-14T14:01:38;10.10;;;5.78;;
10212;SDS011;5150;51.400;6.692;2022-10-14T14:05:02;13.70;;;5.97;;
10212;SDS011;5150;51.400;6.692;2022-10-14T14:08:26;14.02;;;5.85;;
10212;SDS011;5150;51.400;6.692;2022-10-14T14:12:10;7.78;;;5.15;;
10212;SDS011;5150;51.400;6.692;2022-10-14T14:15:35;11.98;;;5.85;;
10212;SDS011;5150;51.400;6.692;2022-10-14T14:19:00;11.77;;;5.22;;
10212;SDS011;5150;51.400;6.692;2022-10-14T14:22:30;7.38;;;4.30;;
10212;SDS011;5150;51.400;6.692;2022-10-14T14:25:53;16.92;;;5.85;;
10212;SDS011;5150;51.400;6.692;2022-10-14T14:29:39;7.28;;;4.90;;
10212;SDS011;5150;51.400;6.692;2022-10-14T14:33:05;13.32;;;6.30;;
10212;SDS011;5150;51.400;6.692;2022-10-14T14:36:32;7.35;;;5.00;;
10212;SDS011;5150;51.400;6.692;2022-10-14T14:40:14;13.30;;;5.50;;
10212;SDS011;5150;51.400;6.692;2022-10-14T14:43:39;8.40;;;5.30;;
10212;SDS011;5150;51.400;6.692;2022-10-14T14:47:13;9.60;;;4.65;;
10212;SDS011;5150;51.400;6.692;2022-10-14T14:50:38;9.85;;;4.75;;
10212;SDS011;5150;51.400;6.692;2022-10-14T14:54:04;6.45;;;5.18;;
10212;SDS011;5150;51.400;6.692;2022-10-14T14:57:27;7.95;;;4.60;;
10212;SDS011;5150;51.400;6.692;2022-10-14T15:00:50;7.47;;;4.55;;
10212;SDS011;5150;51.400;6.692;2022-10-14T15:04:15;7.75;;;4.93;;
10212;SDS011;5150;51.400;6.692;2022-10-14T15:07:42;9.25;;;5.60;;
10212;SDS011;5150;51.400;6.692;2022-10-14T15:11:05;17.05;;;5.95;;
10212;SDS011;5150;51.400;6.692;2022-10-14T15:14:31;8.85;;;4.43;;
10212;SDS011;5150;51.400;6.692;2022-10-14T15:18:04;12.55;;;4.50;;
10212;SDS011;5150;51.400;6.692;2022-10-14T15:21:34;12.23;;;5.28;;
10212;SDS011;5150;51.400;6.692;2022-10-14T15:25:05;6.13;;;4.50;;
10212;SDS011;5150;51.400;6.692;2022-10-14T15:28:31;9.68;;;5.72;;
10212;SDS011;5150;51.400;6.692;2022-10-14T15:32:04;7.75;;;5.10;;
10212;SDS011;5150;51.400;6.692;2022-10-14T15:35:33;9.45;;;4.95;;
10212;SDS011;5150;51.400;6.692;2022-10-14T15:38:59;11.38;;;5.70;;
10212;SDS011;5150;51.400;6.692;2022-10-14T15:42:24;16.30;;;4.57;;
10212;SDS011;5150;51.400;6.692;2022-10-14T15:45:47;6.93;;;5.03;;
10212;SDS011;5150;51.400;6.692;2022-10-14T15:49:33;5.20;;;4.20;;
10212;SDS011;5150;51.400;6.692;2022-10-14T15:52:59;6.32;;;3.92;;
10212;SDS011;5150;51.400;6.692;2022-10-14T15:56:22;7.97;;;5.05;;
10212;SDS011;5150;51.400;6.692;2022-10-14T15:59:46;7.13;;;4.78;;
10212;SDS011;5150;51.400;6.692;2022-10-14T16:03:09;8.73;;;4.85;;
10212;SDS011;5150;51.400;6.692;2022-10-14T16:06:33;8.50;;;4.53;;
10212;SDS011;5150;51.400;6.692;2022-10-14T16:09:56;6.90;;;4.97;;
10212;SDS011;5150;51.400;6.692;2022-10-14T16:13:18;6.63;;;4.30;;
10212;SDS011;5150;51.400;6.692;2022-10-14T16:16:44;8.48;;;4.85;;
10212;SDS011;5150;51.400;6.692;2022-10-14T16:20:07;7.35;;;4.13;;
10212;SDS011;5150;51.400;6.692;2022-10-14T16:23:32;7.68;;;4.43;;
10212;SDS011;5150;51.400;6.692;2022-10-14T16:26:56;6.65;;;4.20;;
10212;SDS011;5150;51.400;6.692;2022-10-14T16:30:18;9.43;;;5.13;;
10212;SDS011;5150;51.400;6.692;2022-10-14T16:33:43;9.63;;;4.47;;
10212;SDS011;5150;51.400;6.692;2022-10-14T16:37:07;4.03;;;3.72;;
10212;SDS011;5150;51.400;6.692;2022-10-14T16:40:30;5.93;;;4.28;;
10212;SDS011;5150;51.400;6.692;2022-10-14T16:43:58;4.72;;;4.28;;
10212;SDS011;5150;51.400;6.692;2022-10-14T16:47:21;7.10;;;3.92;;
10212;SDS011;5150;51.400;6.692;2022-10-14T16:50:48;8.88;;;3.97;;
10212;SDS011;5150;51.400;6.692;2022-10-14T16:54:12;11.00;;;4.90;;
10212;SDS011;5150;51.400;6.692;2022-10-14T16:57:35;22.75;;;8.32;;
10212;SDS011;5150;51.400;6.692;2022-10-14T17:00:58;22.83;;;12.40;;
10212;SDS011;5150;51.400;6.692;2022-10-14T17:04:22;28.90;;;17.40;;
10212;SDS011;5150;51.400;6.692;2022-10-14T17:07:52;35.80;;;21.45;;
10212;SDS011;5150;51.400;6.692;2022-10-14T17:11:15;46.13;;;28.38;;
10212;SDS011;5150;51.400;6.692;2022-10-14T17:14:38;54.85;;;30.95;;
10212;SDS011;5150;51.400;6.692;2022-10-14T17:18:01;59.90;;;31.42;;
10212;SDS011;5150;51.400;6.692;2022-10-14T17:21:24;52.38;;;33.20;;
10212;SDS011;5150;51.400;6.692;2022-10-14T17:24:50;60.42;;;36.45;;
10212;SDS011;5150;51.400;6.692;2022-10-14T17:28:14;63.20;;;37.88;;
10212;SDS011;5150;51.400;6.692;2022-10-14T17:31:37;65.97;;;40.92;;
10212;SDS011;5150;51.400;6.692;2022-10-14T17:35:02;71.88;;;43.03;;
10212;SDS011;5150;51.400;6.692;2022-10-14T17:38:26;72.53;;;46.58;;
10212;SDS011;5150;51.400;6.692;2022-10-14T17:41:52;64.65;;;39.97;;
10212;SDS011;5150;51.400;6.692;2022-10-14T17:45:15;67.97;;;42.70;;
10212;SDS011;5150;51.400;6.692;2022-10-14T17:48:39;68.93;;;46.22;;
10212;SDS011;5150;51.400;6.692;2022-10-14T17:52:03;73.32;;;46.60;;
10212;SDS011;5150;51.400;6.692;2022-10-14T17:55:26;74.38;;;46.72;;
10212;SDS011;5150;51.400;6.692;2022-10-14T17:58:54;72.25;;;44.97;;
10212;SDS011;5150;51.400;6.692;2022-10-14T18:02:18;73.35;;;46.17;;
10212;SDS011;5150;51.400;6.692;2022-10-14T18:05:41;65.53;;;45.63;;
10212;SDS011;5150;51.400;6.692;2022-10-14T18:09:09;64.60;;;45.22;;
10212;SDS011;5150;51.400;6.692;2022-10-14T18:12:33;64.93;;;43.75;;
10212;SDS011;5150;51.400;6.692;2022-10-14T18:16:01;70.60;;;45.55;;
10212;SDS011;5150;51.400;6.692;2022-10-14T18:19:26;64.70;;;43.13;;
10212;SDS011;5150;51.400;6.692;2022-10-14T18:22:49;60.80;;;41.92;;
10212;SDS011;5150;51.400;6.692;2022-10-14T18:26:13;73.32;;;44.47;;
10212;SDS011;5150;51.400;6.692;2022-10-14T18:29:37;61.40;;;41.97;;
10212;SDS011;5150;51.400;6.692;2022-10-14T18:33:02;62.28;;;41.22;;
10212;SDS011;5150;51.400;6.692;2022-10-14T18:36:26;63.33;;;41.72;;
10212;SDS011;5150;51.400;6.692;2022-10-14T18:39:50;65.30;;;41.63;;
10212;SDS011;5150;51.400;6.692;2022-10-14T18:43:13;55.25;;;41.13;;
10212;SDS011;5150;51.400;6.692;2022-10-14T18:46:37;56.33;;;41.63;;
10212;SDS011;5150;51.400;6.692;2022-10-14T18:50:02;59.85;;;42.63;;
10212;SDS011;5150;51.400;6.692;2022-10-14T18:53:25;61.65;;;41.13;;
10212;SDS011;5150;51.400;6.692;2022-10-14T18:56:49;59.63;;;41.78;;
10212;SDS011;5150;51.400;6.692;2022-10-14T19:00:13;57.00;;;39.25;;
10212;SDS011;5150;51.400;6.692;2022-10-14T19:03:37;55.40;;;39.92;;
10212;SDS011;5150;51.400;6.692;2022-10-14T19:07:02;56.28;;;40.33;;
10212;SDS011;5150;51.400;6.692;2022-10-14T19:10:28;57.17;;;39.50;;
10212;SDS011;5150;51.400;6.692;2022-10-14T19:13:52;57.10;;;38.47;;
10212;SDS011;5150;51.400;6.692;2022-10-14T19:17:17;55.65;;;39.22;;
10212;SDS011;5150;51.400;6.692;2022-10-14T19:20:40;63.92;;;41.90;;
10212;SDS011;5150;51.400;6.692;2022-10-14T19:24:07;51.40;;;37.15;;
10212;SDS011;5150;51.400;6.692;2022-10-14T19:27:30;52.67;;;36.10;;
10212;SDS011;5150;51.400;6.692;2022-10-14T19:30:53;53.63;;;35.65;;
10212;SDS011;5150;51.400;6.692;2022-10-14T19:34:16;46.63;;;34.83;;
10212;SDS011;5150;51.400;6.692;2022-10-14T19:37:39;49.97;;;35.83;;
10212;SDS011;5150;51.400;6.692;2022-10-14T19:41:04;52.38;;;35.63;;
10212;SDS011;5150;51.400;6.692;2022-10-14T19:44:29;52.30;;;36.75;;
10212;SDS011;5150;51.400;6.692;2022-10-14T19:47:57;49.85;;;35.08;;
10212;SDS011;5150;51.400;6.692;2022-10-14T19:51:20;54.28;;;36.80;;
10212;SDS011;5150;51.400;6.692;2022-10-14T19:54:43;61.25;;;38.42;;
10212;SDS011;5150;51.400;6.692;2022-10-14T19:58:07;54.67;;;34.55;;
10212;SDS011;5150;51.400;6.692;2022-10-14T20:01:30;49.22;;;35.60;;
10212;SDS011;5150;51.400;6.692;2022-10-14T20:04:53;41.90;;;34.03;;
10212;SDS011;5150;51.400;6.692;2022-10-14T20:08:16;48.47;;;35.65;;
10212;SDS011;5150;51.400;6.692;2022-10-14T20:11:39;51.35;;;34.33;;
10212;SDS011;5150;51.400;6.692;2022-10-14T20:15:04;49.33;;;33.40;;
10212;SDS011;5150;51.400;6.692;2022-10-14T20:18:28;47.17;;;33.63;;
10212;SDS011;5150;51.400;6.692;2022-10-14T20:21:51;54.03;;;33.60;;
10212;SDS011;5150;51.400;6.692;2022-10-14T20:25:14;49.40;;;33.70;;
10212;SDS011;5150;51.400;6.692;2022-10-14T20:28:37;49.60;;;35.28;;
10212;SDS011;5150;51.400;6.692;2022-10-14T20:32:02;41.72;;;32.60;;
10212;SDS011;5150;51.400;6.692;2022-10-14T20:35:25;51.65;;;34.17;;
10212;SDS011;5150;51.400;6.692;2022-10-14T20:38:53;42.55;;;31.20;;
10212;SDS011;5150;51.400;6.692;2022-10-14T20:42:16;42.65;;;30.55;;
10212;SDS011;5150;51.400;6.692;2022-10-14T20:45:39;45.97;;;30.42;;
10212;SDS011;5150;51.400;6.692;2022-10-14T20:49:03;42.13;;;30.45;;
10212;SDS011;5150;51.400;6.692;2022-10-14T20:52:27;48.88;;;32.53;;
10212;SDS011;5150;51.400;6.692;2022-10-14T20:55:50;37.17;;;30.00;;
10212;SDS011;5150;51.400;6.692;2022-10-14T20:59:13;46.10;;;31.10;;